Bookmark and Share
Track history (hours):
 

Mandoudi

Last reported at 2014-Apr-19 19:33 UTC. Time now 2014-Apr-19 19:45 UTC.
Position N 37°58' E 023°37'.

Length 60 m; draft 4.6 m.

Type: Ship (hazmat cat A). MMSI: 237470200.

NotesDate/timePositionNaut miles runAvg speedWind from/ knotsBaromVisibWave heightAir tempDewpointWater temp
2014-Apr-19 19:33N 37°58' E 023°37'0 0.0
2014-Apr-19 18:33N 37°58' E 023°37'0 0.0
2014-Apr-19 17:33N 37°58' E 023°37'0 0.0
2014-Apr-19 16:33N 37°58' E 023°37'0 0.0
2014-Apr-19 15:32N 37°58' E 023°37'0 0.0
2014-Apr-19 14:33N 37°58' E 023°37'0 0.0
2014-Apr-19 13:33N 37°58' E 023°37'0 0.0
2014-Apr-19 12:34N 37°58' E 023°37'0 0.0
2014-Apr-19 11:33N 37°58' E 023°37'0 0.0
2014-Apr-19 10:33N 37°58' E 023°37'0 0.0
2014-Apr-19 09:33N 37°58' E 023°37'0 0.0
2014-Apr-19 08:33N 37°58' E 023°37'0 0.0
2014-Apr-19 07:33N 37°58' E 023°37'0 0.0
2014-Apr-19 06:33N 37°58' E 023°37'0 0.0
2014-Apr-19 05:33N 37°58' E 023°37'0 0.0
2014-Apr-19 04:33N 37°58' E 023°37'0 0.0
2014-Apr-19 03:33N 37°58' E 023°37'0 0.0
2014-Apr-19 02:33N 37°58' E 023°37'0 0.0
2014-Apr-19 01:33N 37°58' E 023°37'0 0.0
2014-Apr-19 00:33N 37°58' E 023°37'0 0.0
2014-Apr-18 23:33N 37°58' E 023°37'0 0.0
2014-Apr-18 22:33N 37°58' E 023°37'0 0.0
2014-Apr-18 21:33N 37°58' E 023°37'0 0.0
2014-Apr-18 20:33N 37°58' E 023°37'0 0.0
2014-Apr-18 19:33N 37°58' E 023°37'0 0.0
2014-Apr-18 18:33N 37°58' E 023°37'0 0.0
2014-Apr-18 17:33N 37°58' E 023°37'0 0.0
2014-Apr-18 16:32N 37°58' E 023°37'0 0.0
2014-Apr-18 15:33N 37°58' E 023°37'0 0.0
2014-Apr-18 14:32N 37°58' E 023°37'0 0.0
2014-Apr-18 13:32N 37°58' E 023°37'0 0.0
2014-Apr-18 12:28N 37°58' E 023°37'0 0.0
2014-Apr-18 11:32N 37°58' E 023°37'0 0.0
2014-Apr-18 10:32N 37°58' E 023°37'0 0.0
2014-Apr-18 09:22N 37°58' E 023°37'0 0.0
2014-Apr-18 08:33N 37°58' E 023°37'0 0.0
2014-Apr-18 07:33N 37°58' E 023°37'0 0.0
2014-Apr-18 06:33N 37°58' E 023°37'0 0.0
2014-Apr-18 05:32N 37°58' E 023°37'0 0.0
2014-Apr-18 04:33N 37°58' E 023°37'0 0.0
2014-Apr-18 03:33N 37°58' E 023°37'0 0.0
2014-Apr-18 02:31N 37°58' E 023°37'0 0.0
2014-Apr-18 01:33N 37°58' E 023°37'0 0.0
2014-Apr-18 00:33N 37°58' E 023°37'0 0.0
2014-Apr-17 23:34N 37°58' E 023°37'0 0.0
2014-Apr-17 22:33N 37°58' E 023°37'0 0.0
2014-Apr-17 21:33N 37°58' E 023°37'0 0.0
2014-Apr-17 20:33N 37°58' E 023°37'0 0.0
2014-Apr-17 19:33N 37°58' E 023°37'0 0.0
2014-Apr-17 18:33N 37°58' E 023°37'0 0.0
2014-Apr-17 17:33N 37°58' E 023°37'0 0.0
2014-Apr-17 16:33N 37°58' E 023°37'0 0.0
2014-Apr-17 15:33N 37°58' E 023°37'0 0.0
2014-Apr-17 14:26N 37°58' E 023°37'0 0.1
2014-Apr-17 13:27N 37°57' E 023°37'7 2.3
2014-Apr-17 10:33N 38°02' E 023°31'0 0.0
2014-Apr-17 09:32N 38°02' E 023°31'0 0.0
2014-Apr-17 05:33N 38°02' E 023°31'3 2.8
2014-Apr-17 04:27N 37°60' E 023°33'4 4.1
2014-Apr-17 03:32N 37°58' E 023°37'0 0.0
2014-Apr-17 02:33N 37°58' E 023°37'0 0.0
2014-Apr-17 01:33N 37°58' E 023°37'0 0.0
2014-Apr-17 00:31N 37°58' E 023°37'0 0.0
2014-Apr-16 23:33N 37°58' E 023°37'0 0.0
2014-Apr-16 22:29N 37°58' E 023°37'2 1.7
2014-Apr-16 21:33N 37°57' E 023°38'0 0.1
2014-Apr-16 20:32N 37°57' E 023°38'2 2.0
2014-Apr-16 19:33N 37°57' E 023°36'0 0.4
2014-Apr-16 18:31N 37°58' E 023°37'0 0.0
2014-Apr-16 17:32N 37°58' E 023°37'0 0.0
2014-Apr-16 16:26N 37°58' E 023°37'0 0.0
2014-Apr-16 15:32N 37°58' E 023°37'0 0.0
2014-Apr-16 14:33N 37°58' E 023°37'0 0.0
2014-Apr-16 13:26N 37°58' E 023°37'0 0.0
2014-Apr-16 12:33N 37°58' E 023°37'1 0.9
2014-Apr-16 11:33N 37°57' E 023°36'2 1.7
2014-Apr-16 10:33N 37°56' E 023°38'0 0.0
2014-Apr-16 09:33N 37°56' E 023°38'0 0.0
2014-Apr-16 08:33N 37°56' E 023°38'0 0.0
2014-Apr-16 07:33N 37°56' E 023°38'0 0.0
2014-Apr-16 06:31N 37°56' E 023°38'1 1.5
2014-Apr-16 05:34N 37°58' E 023°37'0 0.0
2014-Apr-16 04:30N 37°58' E 023°37'0 0.0
2014-Apr-16 03:33N 37°58' E 023°37'0 0.0
2014-Apr-16 02:31N 37°58' E 023°37'0 0.0
2014-Apr-16 01:30N 37°58' E 023°37'0 0.0
2014-Apr-16 00:33N 37°58' E 023°37'0 0.0
2014-Apr-15 23:26N 37°58' E 023°37'0 0.0
2014-Apr-15 22:33N 37°58' E 023°37'0 0.0
2014-Apr-15 21:31N 37°58' E 023°37'0 0.0
2014-Apr-15 20:29N 37°58' E 023°37'0 0.0
2014-Apr-15 19:32N 37°58' E 023°37'0 0.0
2014-Apr-15 18:33N 37°58' E 023°37'0 0.0
2014-Apr-15 17:30N 37°58' E 023°37'0 0.0
2014-Apr-15 16:27N 37°58' E 023°37'0 0.0
2014-Apr-15 15:32N 37°58' E 023°37'0 0.0
2014-Apr-15 14:33N 37°58' E 023°37'0 0.0
2014-Apr-15 12:34N 37°58' E 023°37'0 0.0
2014-Apr-15 11:32N 37°58' E 023°37'0 0.0
2014-Apr-15 10:30N 37°58' E 023°37'0 0.0
2014-Apr-15 09:33N 37°58' E 023°37'1 0.9
2014-Apr-15 08:34N 37°57' E 023°36'2 0.9
2014-Apr-15 06:32N 37°57' E 023°38'0 0.0
2014-Apr-15 05:34N 37°57' E 023°38'3 1.4
2014-Apr-15 03:33N 37°57' E 023°35'0 0.0
2014-Apr-14 16:33N 37°57' E 023°35'1 0.7
2014-Apr-14 15:33N 37°57' E 023°36'2 1.7
2014-Apr-14 14:32N 37°57' E 023°38'0 0.1
2014-Apr-14 11:32N 37°57' E 023°38'0 0.0
2014-Apr-14 10:32N 37°57' E 023°38'0 0.0
2014-Apr-14 09:33N 37°57' E 023°38'3 3.2
2014-Apr-14 08:33N 37°57' E 023°34'0 0.1
2014-Apr-14 05:33N 37°57' E 023°34'2 0.3
2014-Apr-13 22:33N 37°58' E 023°37'0 0.0
2014-Apr-13 21:33N 37°58' E 023°37'0 0.0
2014-Apr-13 20:33N 37°58' E 023°37'0 0.0
2014-Apr-13 19:33N 37°58' E 023°37'0 0.0
2014-Apr-13 18:33N 37°58' E 023°37'0 0.0
2014-Apr-13 17:33N 37°58' E 023°37'0 0.0
2014-Apr-13 16:33N 37°58' E 023°37'0 0.0
2014-Apr-13 15:32N 37°58' E 023°37'0 0.0
2014-Apr-13 14:33N 37°58' E 023°37'0 0.0
2014-Apr-13 13:33N 37°58' E 023°37'0 0.0
2014-Apr-13 12:33N 37°58' E 023°37'0 0.0
2014-Apr-13 11:33N 37°58' E 023°37'0 0.0
2014-Apr-13 10:33N 37°58' E 023°37'2 1.7
2014-Apr-13 09:33N 37°57' E 023°35'5 4.2
2014-Apr-13 08:23N 37°53' E 023°32'0 0.1
2014-Apr-13 07:33N 37°52' E 023°32'0 0.0
2014-Apr-13 06:33N 37°52' E 023°32'3 3.4
2014-Apr-13 05:33N 37°55' E 023°34'3 3.0
2014-Apr-13 04:30N 37°58' E 023°37'0 0.0
2014-Apr-13 03:28N 37°58' E 023°37'0 0.0
2014-Apr-13 02:24N 37°58' E 023°37'0 0.0
2014-Apr-13 01:34N 37°58' E 023°37'0 0.0
2014-Apr-13 00:16N 37°58' E 023°37'0 0.0
2014-Apr-12 23:29N 37°58' E 023°37'0 0.0
2014-Apr-12 22:30N 37°58' E 023°37'0 0.0
2014-Apr-12 21:33N 37°58' E 023°37'0 0.0
2014-Apr-12 20:33N 37°58' E 023°37'0 0.0
2014-Apr-12 19:32N 37°58' E 023°37'0 0.0
2014-Apr-12 18:32N 37°58' E 023°37'0 0.0
2014-Apr-12 17:30N 37°58' E 023°37'0 0.0
2014-Apr-12 16:30N 37°58' E 023°37'0 0.0
2014-Apr-12 15:12N 37°58' E 023°37'0 0.0
2014-Apr-12 14:07N 37°58' E 023°37'0 0.0
2014-Apr-12 13:23N 37°58' E 023°37'0 0.0
2014-Apr-12 12:30N 37°58' E 023°37'0 0.0
2014-Apr-12 11:33N 37°58' E 023°37'0 0.0
2014-Apr-12 10:28N 37°58' E 023°37'0 0.0
2014-Apr-12 09:24N 37°58' E 023°37'0 0.0
2014-Apr-12 08:28N 37°58' E 023°37'0 0.0
2014-Apr-12 07:26N 37°58' E 023°37'0 0.0
2014-Apr-12 06:32N 37°58' E 023°37'1 1.2
2014-Apr-12 05:33N 37°57' E 023°35'4 0.3
2014-Apr-11 14:04N 38°00' E 023°32'4 7.6
2014-Apr-11 13:33N 37°57' E 023°35'2 2.3
2014-Apr-11 12:28N 37°56' E 023°38'0 0.0
2014-Apr-11 11:33N 37°56' E 023°38'0 0.0
2014-Apr-11 10:32N 37°56' E 023°38'0 0.0
2014-Apr-11 09:33N 37°56' E 023°38'0 0.0
2014-Apr-11 08:33N 37°56' E 023°38'0 0.4
2014-Apr-11 07:30N 37°57' E 023°38'0 0.0
2014-Apr-11 06:14N 37°57' E 023°38'2 3.0
2014-Apr-11 05:33N 37°57' E 023°36'1 0.8
2014-Apr-11 04:26N 37°58' E 023°37'0 0.0
2014-Apr-11 03:30N 37°58' E 023°37'0 0.0
2014-Apr-11 02:26N 37°58' E 023°37'0 0.0
2014-Apr-11 01:29N 37°58' E 023°37'0 0.0
2014-Apr-11 00:31N 37°58' E 023°37'0 0.0
2014-Apr-10 23:32N 37°58' E 023°37'0 0.0
2014-Apr-10 22:24N 37°58' E 023°37'0 0.0
2014-Apr-10 21:25N 37°58' E 023°37'0 0.0
2014-Apr-10 20:28N 37°58' E 023°37'0 0.0
2014-Apr-10 19:32N 37°58' E 023°37'0 0.0
2014-Apr-10 18:33N 37°58' E 023°37'4 3.6
2014-Apr-10 17:33N 37°55' E 023°34'0 0.1
2014-Apr-10 16:33N 37°55' E 023°34'0 0.1
2014-Apr-10 15:27N 37°55' E 023°34'1 1.3
2014-Apr-10 14:27N 37°56' E 023°35'2 0.4
2014-Apr-10 09:16N 37°58' E 023°33'4 5.8
2014-Apr-10 08:33N 37°57' E 023°38'0 0.0
2014-Apr-10 07:29N 37°57' E 023°38'0 0.0
2014-Apr-10 06:17N 37°57' E 023°38'2 2.6
2014-Apr-10 05:33N 37°57' E 023°36'1 0.9
2014-Apr-10 04:32N 37°58' E 023°37'0 0.0
2014-Apr-10 03:31N 37°58' E 023°37'  

Dump ship's entire track history

sailing weather and tide predictions

Mandoudi — SV3198 — position and weather